Time;durP1;ratioP1;P1;durP2;ratioP2;P2;SDS_P1;SDS_P2;PMS_P1;PMS_P2;Temp;Humidity;BMP_temperature;BMP_pressure;BME280_temperature;BME280_humidity;BME280_pressure;Samples;Min_cycle;Max_cycle;Signal;HPM_P1;HPM_P2
2023/10/29 00:00:09;;;;;;;4.10;1.13;;;12.20;99.90;;;;;;5072271;28;20535;-83
2023/10/29 00:02:36;;;;;;;0.70;0.70;;;12.20;99.90;;;;;;5072349;28;20816;-83
2023/10/29 00:05:04;;;;;;;0.50;0.40;;;12.30;99.90;;;;;;5072421;28;20928;-82
2023/10/29 00:07:31;;;;;;;0.50;0.40;;;12.30;99.90;;;;;;5072514;28;20467;-82
2023/10/29 00:09:58;;;;;;;0.50;0.40;;;12.30;99.90;;;;;;5072334;28;20433;-83
2023/10/29 00:12:25;;;;;;;0.90;0.57;;;12.30;99.90;;;;;;5072146;28;20443;-82
2023/10/29 00:14:52;;;;;;;1.87;0.73;;;12.40;99.90;;;;;;5071997;28;20439;-82
2023/10/29 00:17:18;;;;;;;0.70;0.70;;;12.40;99.90;;;;;;5071826;28;20461;-83
2023/10/29 00:19:45;;;;;;;0.60;0.60;;;12.40;99.90;;;;;;5088998;28;20475;-80
2023/10/29 00:22:13;;;;;;;3.63;3.40;;;12.50;99.90;;;;;;5092163;28;20435;-82
2023/10/29 00:24:40;;;;;;;0.50;0.40;;;12.50;99.90;;;;;;5091794;28;20436;-82
2023/10/29 00:27:07;;;;;;;0.60;0.50;;;12.50;99.90;;;;;;5091756;28;20516;-84
2023/10/29 00:29:33;;;;;;;0.60;0.50;;;12.60;99.90;;;;;;5092120;28;20435;-83
2023/10/29 00:32:01;;;;;;;0.70;0.60;;;12.60;99.90;;;;;;5092086;28;20439;-82
2023/10/29 00:34:27;;;;;;;1.10;0.50;;;12.60;99.90;;;;;;5086035;28;20437;-84
2023/10/29 00:36:54;;;;;;;0.70;0.50;;;12.60;99.90;;;;;;5073774;28;20462;-83
2023/10/29 00:39:22;;;;;;;0.70;0.60;;;12.60;99.90;;;;;;5087068;28;20428;-81
2023/10/29 00:41:55;;;;;;;1.17;0.70;;;12.60;99.90;;;;;;5085188;28;20489;-82
2023/10/29 00:44:22;;;;;;;0.73;0.70;;;12.60;99.90;;;;;;5093228;28;20802;-81
2023/10/29 00:46:49;;;;;;;0.60;0.60;;;12.70;99.90;;;;;;5085576;28;21038;-82
2023/10/29 00:49:16;;;;;;;0.60;0.40;;;12.70;99.90;;;;;;5097671;28;20446;-83
2023/10/29 00:51:44;;;;;;;0.50;0.40;;;12.80;99.90;;;;;;5103398;28;20432;-82
2023/10/29 00:54:11;;;;;;;0.50;0.40;;;12.90;99.90;;;;;;5097335;28;20432;-82
2023/10/29 00:56:40;;;;;;;0.50;0.37;;;12.90;99.90;;;;;;5098596;28;20969;-82
2023/10/29 00:59:07;;;;;;;2.00;0.67;;;12.90;99.90;;;;;;5097250;28;20935;-82
2023/10/29 01:01:34;;;;;;;1.30;0.90;;;12.90;99.90;;;;;;5081786;28;20541;-82
2023/10/29 01:04:01;;;;;;;0.60;0.50;;;13.00;99.90;;;;;;5087271;28;20525;-84
2023/10/29 01:06:28;;;;;;;0.60;0.57;;;13.00;99.90;;;;;;5096291;28;20503;-83
2023/10/29 01:08:55;;;;;;;2.50;0.83;;;13.00;99.90;;;;;;5096741;28;20525;-82
2023/10/29 01:11:22;;;;;;;0.80;0.80;;;13.00;99.90;;;;;;5096198;28;20431;-83
2023/10/29 01:13:50;;;;;;;0.50;0.40;;;12.90;99.90;;;;;;5096288;28;20440;-82
2023/10/29 01:16:17;;;;;;;2.83;1.23;;;12.90;99.90;;;;;;5096113;28;20447;-82
2023/10/29 01:18:44;;;;;;;0.50;0.40;;;12.90;99.90;;;;;;5096525;28;20439;-82
2023/10/29 01:21:11;;;;;;;0.50;0.50;;;12.90;99.90;;;;;;5096103;28;20485;-83
2023/10/29 01:23:39;;;;;;;0.93;0.83;;;12.90;99.90;;;;;;5096677;28;20526;-83
2023/10/29 01:26:06;;;;;;;0.50;0.40;;;12.90;99.90;;;;;;5096743;28;20455;-81
2023/10/29 01:28:32;;;;;;;1.13;1.03;;;13.00;99.90;;;;;;5096411;28;20444;-83
2023/10/29 01:31:01;;;;;;;0.50;0.40;;;12.90;99.90;;;;;;5101571;28;20434;-84
2023/10/29 01:33:27;;;;;;;1.37;0.63;;;13.00;99.90;;;;;;5101016;28;20512;-84
2023/10/29 01:35:54;;;;;;;0.50;0.40;;;13.00;99.90;;;;;;5100871;28;20923;-87
2023/10/29 01:38:21;;;;;;;0.70;0.50;;;13.00;99.90;;;;;;5100343;28;20512;-84
2023/10/29 01:40:49;;;;;;;1.23;0.60;;;13.00;99.90;;;;;;5100847;28;20477;-84
2023/10/29 01:43:16;;;;;;;0.50;0.40;;;13.10;99.90;;;;;;5100628;28;20497;-84
2023/10/29 01:45:42;;;;;;;0.50;0.50;;;13.10;99.90;;;;;;5084584;28;20968;-84
2023/10/29 01:48:10;;;;;;;0.50;0.50;;;13.20;99.90;;;;;;5080753;28;20559;-84
2023/10/29 01:50:37;;;;;;;0.50;0.40;;;13.20;99.90;;;;;;5080035;28;20443;-83
2023/10/29 01:53:04;;;;;;;2.70;0.77;;;13.30;99.90;;;;;;5080686;28;20445;-85
2023/10/29 01:55:31;;;;;;;0.50;0.50;;;13.30;99.90;;;;;;5080162;28;20437;-84
2023/10/29 01:57:58;;;;;;;0.50;0.40;;;13.30;99.90;;;;;;5079592;28;21073;-86
2023/10/29 02:00:25;;;;;;;0.50;0.40;;;13.30;99.90;;;;;;5078822;28;20479;-85
2023/10/29 02:02:52;;;;;;;0.50;0.40;;;13.20;99.90;;;;;;5076499;28;20528;-83
2023/10/29 02:05:20;;;;;;;0.60;0.40;;;13.10;99.90;;;;;;5082900;28;20436;-83
2023/10/29 02:07:47;;;;;;;0.60;0.60;;;13.00;99.90;;;;;;5082802;28;20547;-81
2023/10/29 02:10:13;;;;;;;0.50;0.50;;;12.90;99.90;;;;;;5078992;28;20425;-83
2023/10/29 02:12:40;;;;;;;1.23;0.50;;;12.80;99.90;;;;;;5078816;28;20446;-83
2023/10/29 02:15:08;;;;;;;0.60;0.50;;;12.80;99.90;;;;;;5077507;28;20439;-83
2023/10/29 02:17:34;;;;;;;0.50;0.40;;;12.70;99.90;;;;;;5077838;28;20532;-85
2023/10/29 02:20:02;;;;;;;0.60;0.60;;;12.70;99.90;;;;;;5077901;28;20441;-84
2023/10/29 02:22:30;;;;;;;0.60;0.60;;;12.70;99.90;;;;;;5077530;28;20948;-83
2023/10/29 02:24:57;;;;;;;0.50;0.50;;;12.70;99.90;;;;;;5077404;28;20441;-81
2023/10/29 02:27:24;;;;;;;0.50;0.40;;;12.60;99.90;;;;;;5090903;28;20490;-83
2023/10/29 02:29:50;;;;;;;0.50;0.40;;;12.60;99.90;;;;;;5081270;28;20504;-81
2023/10/29 02:32:17;;;;;;;0.50;0.50;;;12.60;99.90;;;;;;5077336;28;20471;-84
2023/10/29 02:34:44;;;;;;;0.50;0.50;;;12.60;99.90;;;;;;5092730;28;20447;-83
2023/10/29 02:37:11;;;;;;;0.50;0.40;;;12.60;99.90;;;;;;5098280;28;20460;-84
2023/10/29 02:39:39;;;;;;;0.70;0.70;;;12.60;99.90;;;;;;5098557;28;20435;-84
2023/10/29 02:42:06;;;;;;;0.50;0.40;;;12.50;99.90;;;;;;5097642;28;20471;-85
2023/10/29 02:44:33;;;;;;;0.60;0.60;;;12.50;99.90;;;;;;5097748;28;20432;-84
2023/10/29 02:46:59;;;;;;;0.97;0.97;;;12.50;99.90;;;;;;5097334;28;20474;-84
2023/10/29 02:49:26;;;;;;;0.50;0.50;;;12.50;99.90;;;;;;5097182;28;20474;-84
2023/10/29 02:51:53;;;;;;;1.10;0.70;;;12.60;99.90;;;;;;5096704;28;20431;-82
2023/10/29 02:54:20;;;;;;;1.73;0.77;;;12.50;99.90;;;;;;5096823;28;20953;-84
2023/10/29 02:56:48;;;;;;;1.10;1.10;;;12.60;99.90;;;;;;5096745;28;20462;-83
2023/10/29 02:59:14;;;;;;;0.70;0.50;;;12.70;99.90;;;;;;5096138;28;20439;-84
2023/10/29 03:01:41;;;;;;;2.53;1.03;;;12.70;99.90;;;;;;5095602;28;20475;-83
2023/10/29 03:04:08;;;;;;;0.50;0.40;;;12.80;99.90;;;;;;5095867;28;20432;-82
2023/10/29 03:06:38;;;;;;;1.03;0.60;;;12.80;99.90;;;;;;5096861;28;20451;-82
2023/10/29 03:09:05;;;;;;;0.50;0.40;;;12.80;99.90;;;;;;5095491;28;20959;-83
2023/10/29 03:11:32;;;;;;;0.50;0.40;;;12.90;99.90;;;;;;5095445;28;20428;-83
2023/10/29 03:14:00;;;;;;;0.50;0.50;;;12.90;99.90;;;;;;5095648;28;20443;-82
2023/10/29 03:16:26;;;;;;;1.07;0.60;;;12.90;99.90;;;;;;5095623;28;20833;-83
2023/10/29 03:18:53;;;;;;;0.63;0.63;;;13.00;99.90;;;;;;5096202;28;20444;-85
2023/10/29 03:21:20;;;;;;;0.50;0.40;;;13.00;99.90;;;;;;5096025;28;20471;-83
2023/10/29 03:23:47;;;;;;;0.60;0.40;;;13.10;99.90;;;;;;5096259;28;20440;-82
2023/10/29 03:26:13;;;;;;;0.50;0.40;;;13.10;99.90;;;;;;5095599;28;20834;-85
2023/10/29 03:28:41;;;;;;;4.43;0.60;;;13.10;99.90;;;;;;5081317;28;20436;-83
2023/10/29 03:31:13;;;;;;;0.50;0.40;;;13.10;99.90;;;;;;5075654;28;20486;-84
2023/10/29 03:33:40;;;;;;;0.50;0.50;;;13.10;99.90;;;;;;5075494;28;20868;-84
2023/10/29 03:36:08;;;;;;;0.50;0.40;;;13.10;99.90;;;;;;5074824;28;20456;-83
2023/10/29 03:38:35;;;;;;;0.90;0.47;;;13.10;99.90;;;;;;5075635;28;20455;-83
2023/10/29 03:41:02;;;;;;;0.50;0.40;;;13.10;99.90;;;;;;5075881;28;20517;-83
2023/10/29 03:43:29;;;;;;;0.70;0.50;;;13.10;99.90;;;;;;5075991;28;20436;-83
2023/10/29 03:45:56;;;;;;;0.50;0.40;;;13.20;99.90;;;;;;5076433;28;20439;-83
2023/10/29 03:48:24;;;;;;;0.60;0.50;;;13.20;99.90;;;;;;5075753;28;20982;-84
2023/10/29 03:50:51;;;;;;;0.60;0.40;;;13.30;99.90;;;;;;5075539;28;20505;-83
2023/10/29 03:53:17;;;;;;;0.50;0.40;;;13.30;99.90;;;;;;5075558;28;20433;-84
2023/10/29 03:55:44;;;;;;;0.50;0.50;;;13.40;99.90;;;;;;5075281;28;20946;-84
2023/10/29 03:58:11;;;;;;;0.50;0.40;;;13.40;99.90;;;;;;5074473;28;20440;-84
2023/10/29 04:00:38;;;;;;;0.60;0.60;;;13.40;99.90;;;;;;5076140;28;20473;-85
2023/10/29 04:03:04;;;;;;;0.50;0.40;;;13.50;99.90;;;;;;5075862;28;20439;-84
2023/10/29 04:05:34;;;;;;;0.60;0.60;;;13.50;99.90;;;;;;5075790;28;20444;-84
2023/10/29 04:08:01;;;;;;;0.50;0.50;;;13.60;99.90;;;;;;5075857;28;20473;-84
2023/10/29 04:10:28;;;;;;;0.50;0.40;;;13.60;99.90;;;;;;5075260;28;20880;-85
2023/10/29 04:12:55;;;;;;;0.50;0.40;;;13.60;99.90;;;;;;5075016;28;20443;-83
2023/10/29 04:15:22;;;;;;;0.50;0.40;;;13.60;99.90;;;;;;5075239;28;21122;-84
2023/10/29 04:17:49;;;;;;;1.03;0.50;;;13.60;99.90;;;;;;5075543;28;20467;-81
2023/10/29 04:20:16;;;;;;;0.77;0.60;;;13.60;99.90;;;;;;5074936;28;20523;-84
2023/10/29 04:22:45;;;;;;;0.50;0.40;;;13.60;99.90;;;;;;5075228;28;20472;-84
2023/10/29 04:25:12;;;;;;;1.10;1.00;;;13.60;99.90;;;;;;5074410;28;20443;-83
2023/10/29 04:27:38;;;;;;;0.50;0.50;;;13.60;99.90;;;;;;5074432;28;20459;-83
2023/10/29 04:30:06;;;;;;;0.60;0.60;;;13.60;99.90;;;;;;5075387;28;20468;-83
2023/10/29 04:32:33;;;;;;;0.60;0.50;;;13.60;99.90;;;;;;5074762;28;20436;-83
2023/10/29 04:35:00;;;;;;;2.37;1.47;;;13.60;99.90;;;;;;5075453;28;20520;-81
2023/10/29 04:37:27;;;;;;;0.50;0.43;;;13.60;99.90;;;;;;5075482;28;20457;-84
2023/10/29 04:39:55;;;;;;;0.93;0.80;;;13.60;99.90;;;;;;5075009;28;20532;-85
2023/10/29 04:42:22;;;;;;;0.50;0.40;;;13.60;99.90;;;;;;5074871;28;20475;-83
2023/10/29 04:44:49;;;;;;;0.50;0.50;;;13.60;99.90;;;;;;5074541;28;20432;-83
2023/10/29 04:47:15;;;;;;;0.50;0.40;;;13.60;99.90;;;;;;5074393;28;20975;-85
2023/10/29 04:49:43;;;;;;;0.90;0.67;;;13.50;99.90;;;;;;5074536;28;20440;-85
2023/10/29 04:52:10;;;;;;;0.83;0.40;;;13.50;99.90;;;;;;5074450;28;20437;-83
2023/10/29 04:54:37;;;;;;;4.67;0.80;;;13.60;99.90;;;;;;5086974;28;20432;-84
2023/10/29 04:57:05;;;;;;;5.50;0.80;;;13.60;99.90;;;;;;5094778;28;20463;-84
2023/10/29 04:59:32;;;;;;;0.50;0.40;;;13.60;99.90;;;;;;5095070;28;20967;-85
2023/10/29 05:01:59;;;;;;;0.50;0.40;;;13.60;99.90;;;;;;5095014;28;20463;-84
2023/10/29 05:04:25;;;;;;;1.00;0.50;;;13.60;99.90;;;;;;5094952;28;20443;-85
2023/10/29 05:06:52;;;;;;;0.50;0.40;;;13.50;99.90;;;;;;5095636;28;20535;-83
2023/10/29 05:09:19;;;;;;;0.50;0.40;;;13.50;99.90;;;;;;5094926;28;20440;-84
2023/10/29 05:11:47;;;;;;;0.50;0.40;;;13.50;99.90;;;;;;5089902;28;20807;-84
2023/10/29 05:14:15;;;;;;;0.50;0.40;;;13.40;99.90;;;;;;5092167;28;20460;-84
2023/10/29 05:16:42;;;;;;;2.40;2.30;;;13.40;99.90;;;;;;5094668;28;20543;-85
2023/10/29 05:19:09;;;;;;;0.50;0.40;;;13.50;99.90;;;;;;5094787;28;20427;-83
2023/10/29 05:21:36;;;;;;;0.50;0.30;;;13.50;99.90;;;;;;5078485;28;20822;-84
2023/10/29 05:24:03;;;;;;;5.10;0.50;;;13.50;99.90;;;;;;5078757;28;20437;-83
2023/10/29 05:26:30;;;;;;;0.50;0.40;;;13.50;99.90;;;;;;5082549;28;20452;-85
2023/10/29 05:28:56;;;;;;;0.50;0.40;;;13.50;99.90;;;;;;5089191;28;20436;-84
2023/10/29 05:31:24;;;;;;;0.50;0.40;;;13.60;99.90;;;;;;5076007;28;20440;-84
2023/10/29 05:33:51;;;;;;;0.50;0.40;;;13.60;99.90;;;;;;5082784;28;20449;-84
2023/10/29 05:36:18;;;;;;;0.50;0.37;;;13.70;99.90;;;;;;5078978;28;20471;-84
2023/10/29 05:38:45;;;;;;;1.27;0.90;;;13.70;99.90;;;;;;5093514;28;20529;-85
2023/10/29 05:41:13;;;;;;;0.50;0.30;;;13.70;99.90;;;;;;5077741;28;20468;-84
2023/10/29 05:43:40;;;;;;;0.50;0.40;;;13.80;99.90;;;;;;5081586;28;20435;-84
2023/10/29 05:46:12;;;;;;;3.27;0.70;;;13.80;99.90;;;;;;5081798;28;20463;-84
2023/10/29 05:48:40;;;;;;;0.50;0.40;;;13.80;99.90;;;;;;5077471;28;20441;-85
2023/10/29 05:51:10;;;;;;;0.50;0.40;;;13.80;99.90;;;;;;5085358;28;20806;-83
2023/10/29 05:53:38;;;;;;;0.80;0.80;;;13.80;99.90;;;;;;5093904;28;20931;-84
2023/10/29 05:56:05;;;;;;;0.50;0.40;;;13.70;99.90;;;;;;5078195;28;20489;-83
2023/10/29 05:58:33;;;;;;;2.00;1.83;;;13.70;99.90;;;;;;5085094;28;20475;-84
2023/10/29 06:01:00;;;;;;;0.50;0.40;;;13.80;99.90;;;;;;5092682;28;20440;-84
2023/10/29 06:03:27;;;;;;;5.60;1.83;;;13.80;99.90;;;;;;5078207;28;20527;-85
2023/10/29 06:05:55;;;;;;;0.60;0.50;;;13.80;99.90;;;;;;5086073;28;20846;-85
2023/10/29 06:08:23;;;;;;;0.87;0.60;;;13.80;99.90;;;;;;5095705;28;20535;-83
2023/10/29 06:10:50;;;;;;;0.50;0.40;;;13.80;99.90;;;;;;5092998;28;20476;-85
2023/10/29 06:13:17;;;;;;;0.70;0.50;;;13.80;99.90;;;;;;5086129;28;20432;-84
2023/10/29 06:15:44;;;;;;;0.50;0.40;;;13.80;99.90;;;;;;5099735;28;20444;-83
2023/10/29 06:18:10;;;;;;;0.50;0.40;;;13.80;99.90;;;;;;5082943;28;20471;-83
2023/10/29 06:20:41;;;;;;;0.50;0.40;;;13.90;99.90;;;;;;5086909;28;20429;-83
2023/10/29 06:23:09;;;;;;;0.93;0.40;;;13.90;99.90;;;;;;5078556;28;20838;-83
2023/10/29 06:25:36;;;;;;;0.50;0.40;;;14.00;99.90;;;;;;5089661;28;20442;-83
2023/10/29 06:28:02;;;;;;;0.50;0.40;;;14.00;99.90;;;;;;5083971;28;20539;-82
2023/10/29 06:30:29;;;;;;;0.70;0.40;;;14.00;99.90;;;;;;5078082;28;20443;-84
2023/10/29 06:32:59;;;;;;;0.60;0.40;;;14.00;99.90;;;;;;5084723;28;20491;-85
2023/10/29 06:35:26;;;;;;;0.50;0.40;;;14.10;99.90;;;;;;5088582;28;20800;-83
2023/10/29 06:37:53;;;;;;;2.87;0.50;;;14.10;99.90;;;;;;5077309;28;20457;-83
2023/10/29 06:40:21;;;;;;;2.00;1.90;;;14.10;99.90;;;;;;5078463;28;20460;-83
2023/10/29 06:42:48;;;;;;;0.50;0.40;;;14.20;99.90;;;;;;5096783;28;20472;-82
2023/10/29 06:45:16;;;;;;;0.70;0.50;;;14.20;99.90;;;;;;5097703;28;20531;-83
2023/10/29 06:47:43;;;;;;;1.10;0.40;;;14.20;99.90;;;;;;5089945;28;20471;-83
2023/10/29 06:50:10;;;;;;;0.50;0.40;;;14.30;99.90;;;;;;5098757;28;20432;-83
2023/10/29 06:52:37;;;;;;;0.93;0.60;;;14.30;99.90;;;;;;5095125;28;20438;-82
2023/10/29 06:55:05;;;;;;;5.60;0.70;;;14.30;99.90;;;;;;5077223;28;20515;-84
2023/10/29 06:57:33;;;;;;;0.50;0.50;;;14.30;99.90;;;;;;5080833;28;20457;-82
2023/10/29 07:00:00;;;;;;;0.70;0.70;;;14.30;99.90;;;;;;5101312;28;20435;-83
2023/10/29 07:02:27;;;;;;;0.50;0.40;;;14.30;99.90;;;;;;5101377;28;20511;-84
2023/10/29 07:04:54;;;;;;;2.73;0.50;;;14.30;99.90;;;;;;5101315;28;20838;-83
2023/10/29 07:07:24;;;;;;;0.50;0.40;;;14.20;99.90;;;;;;5101582;28;20455;-84
2023/10/29 07:09:51;;;;;;;2.30;0.97;;;14.20;99.90;;;;;;5090542;28;20441;-84
2023/10/29 07:12:18;;;;;;;0.50;0.50;;;14.20;99.90;;;;;;5089011;28;20491;-81
2023/10/29 07:14:46;;;;;;;8.50;1.37;;;14.20;99.90;;;;;;5101067;28;20433;-83
2023/10/29 07:17:13;;;;;;;0.50;0.40;;;14.20;99.90;;;;;;5100974;28;20451;-85
2023/10/29 07:19:40;;;;;;;3.53;0.70;;;14.20;99.90;;;;;;5098828;28;20454;-83
2023/10/29 07:22:07;;;;;;;0.50;0.40;;;14.20;99.90;;;;;;5101005;28;20498;-85
2023/10/29 07:24:36;;;;;;;0.50;0.40;;;14.20;99.90;;;;;;5100940;28;20436;-83
2023/10/29 07:27:02;;;;;;;0.50;0.40;;;14.20;99.90;;;;;;5100461;28;20460;-84
2023/10/29 07:29:29;;;;;;;0.60;0.50;;;14.30;99.90;;;;;;5100754;28;20500;-86
2023/10/29 07:31:57;;;;;;;0.50;0.40;;;14.30;99.90;;;;;;5087310;28;20439;-82
2023/10/29 07:34:24;;;;;;;0.50;0.40;;;14.30;99.90;;;;;;5081238;28;20472;-83
2023/10/29 07:36:51;;;;;;;0.50;0.40;;;14.30;99.90;;;;;;5081997;28;20457;-83
2023/10/29 07:39:18;;;;;;;0.50;0.40;;;14.30;99.90;;;;;;5080638;28;20474;-82
2023/10/29 07:41:44;;;;;;;0.50;0.40;;;14.30;99.90;;;;;;5101490;28;20522;-83
2023/10/29 07:44:11;;;;;;;0.50;0.40;;;14.20;99.90;;;;;;5095600;28;20440;-84
2023/10/29 07:46:38;;;;;;;0.50;0.40;;;14.20;99.90;;;;;;5082350;28;20475;-84
2023/10/29 07:49:06;;;;;;;0.60;0.50;;;14.20;99.90;;;;;;5087634;22;20501;-80
2023/10/29 07:51:33;;;;;;;1.03;0.90;;;14.20;99.90;;;;;;5063728;28;20451;-81
2023/10/29 07:53:59;;;;;;;0.50;0.40;;;14.40;99.90;;;;;;5076219;28;20444;-79
2023/10/29 07:56:26;;;;;;;0.80;0.70;;;14.60;99.90;;;;;;5075296;28;20441;-82
2023/10/29 07:58:53;;;;;;;0.50;0.47;;;14.90;99.90;;;;;;5076248;28;20463;-82
2023/10/29 08:01:20;;;;;;;0.50;0.40;;;15.10;99.90;;;;;;5084324;28;20447;-78
2023/10/29 08:03:48;;;;;;;0.50;0.40;;;15.30;99.90;;;;;;5084550;28;20567;-82
2023/10/29 08:06:16;;;;;;;0.50;0.40;;;16.10;99.90;;;;;;5084835;28;20520;-81
2023/10/29 08:08:43;;;;;;;1.93;0.70;;;16.50;99.90;;;;;;5083861;28;20522;-84
2023/10/29 08:11:19;;;;;;;0.50;0.40;;;16.30;99.90;;;;;;5077795;28;20809;-82
2023/10/29 08:13:46;;;;;;;0.50;0.40;;;15.90;99.90;;;;;;5084093;28;20445;-82
2023/10/29 08:16:13;;;;;;;1.57;1.47;;;15.40;99.90;;;;;;5084444;28;20512;-79
2023/10/29 08:18:40;;;;;;;0.50;0.40;;;15.00;99.90;;;;;;5083082;28;21029;-81
2023/10/29 08:21:07;;;;;;;0.50;0.40;;;14.80;99.90;;;;;;5084251;28;20441;-80
2023/10/29 08:23:35;;;;;;;0.70;0.60;;;14.70;99.90;;;;;;5075482;28;20481;-81
2023/10/29 08:26:02;;;;;;;0.50;0.40;;;14.40;99.90;;;;;;5084189;28;20441;-83
2023/10/29 08:28:29;;;;;;;0.50;0.40;;;14.30;99.90;;;;;;5083870;28;20524;-81
2023/10/29 08:30:56;;;;;;;0.50;0.40;;;14.30;99.90;;;;;;5079560;28;20444;-82
2023/10/29 08:33:23;;;;;;;5.93;0.60;;;14.20;99.90;;;;;;5056889;28;20525;-82
2023/10/29 08:35:50;;;;;;;0.50;0.40;;;14.10;99.90;;;;;;5079564;28;20437;-83
2023/10/29 08:38:16;;;;;;;0.50;0.40;;;14.10;99.90;;;;;;5084710;28;20472;-82
2023/10/29 08:40:45;;;;;;;0.50;0.40;;;14.10;99.90;;;;;;5082110;28;20461;-82
2023/10/29 08:43:13;;;;;;;0.90;0.70;;;14.10;99.90;;;;;;5084638;28;20548;-82
2023/10/29 08:45:41;;;;;;;0.50;0.40;;;14.20;99.90;;;;;;5084594;28;20456;-82
2023/10/29 08:48:08;;;;;;;0.50;0.30;;;14.20;99.90;;;;;;5084590;28;20460;-81
2023/10/29 08:50:35;;;;;;;0.50;0.40;;;14.30;99.90;;;;;;5084532;28;20499;-82
2023/10/29 08:53:02;;;;;;;0.80;0.50;;;14.30;99.90;;;;;;5085041;28;20445;-81
2023/10/29 08:55:29;;;;;;;2.30;0.80;;;14.30;99.90;;;;;;5084969;28;20508;-80
2023/10/29 08:57:57;;;;;;;0.50;0.40;;;14.40;99.90;;;;;;5083794;28;20440;-82
2023/10/29 09:00:24;;;;;;;0.70;0.67;;;14.40;99.90;;;;;;5084732;28;20540;-82
2023/10/29 09:02:52;;;;;;;0.50;0.40;;;14.50;99.90;;;;;;5083336;28;20507;-81
2023/10/29 09:05:19;;;;;;;0.50;0.40;;;14.50;99.90;;;;;;5084397;28;20500;-81
2023/10/29 09:07:46;;;;;;;0.70;0.70;;;14.50;99.90;;;;;;5083865;28;20448;-81
2023/10/29 09:10:12;;;;;;;1.07;0.60;;;14.50;99.90;;;;;;5086040;28;20536;-82
2023/10/29 09:12:39;;;;;;;0.60;0.60;;;14.40;99.90;;;;;;5087006;28;20512;-81
2023/10/29 09:15:09;;;;;;;0.50;0.30;;;14.40;99.90;;;;;;5088083;28;20950;-81
2023/10/29 09:17:36;;;;;;;0.60;0.50;;;14.50;99.90;;;;;;5087517;28;20436;-78
2023/10/29 09:20:03;;;;;;;0.50;0.40;;;14.50;99.90;;;;;;5087917;28;20552;-81
2023/10/29 09:22:30;;;;;;;0.50;0.40;;;14.50;99.90;;;;;;5086895;28;20991;-78
2023/10/29 09:24:57;;;;;;;0.50;0.50;;;14.50;99.90;;;;;;5080395;28;20531;-82
2023/10/29 09:27:24;;;;;;;0.50;0.40;;;14.60;99.90;;;;;;5087909;28;20447;-81
2023/10/29 09:29:51;;;;;;;0.50;0.40;;;14.60;99.90;;;;;;5087073;28;20603;-81
2023/10/29 09:32:19;;;;;;;1.27;0.50;;;14.70;99.90;;;;;;5087101;28;20441;-81
2023/10/29 09:34:45;;;;;;;0.67;0.67;;;14.70;99.90;;;;;;5087049;28;21024;-82
2023/10/29 09:37:13;;;;;;;0.50;0.40;;;14.50;99.90;;;;;;5087613;28;20877;-81
2023/10/29 09:39:40;;;;;;;0.50;0.40;;;14.50;99.90;;;;;;5086825;28;20514;-82
2023/10/29 09:42:09;;;;;;;0.70;0.70;;;14.50;99.90;;;;;;5086722;28;20441;-81
2023/10/29 09:44:40;;;;;;;0.50;0.40;;;14.50;99.90;;;;;;5086263;28;20444;-82
2023/10/29 09:47:13;;;;;;;0.50;0.50;;;14.50;99.90;;;;;;5086688;28;20439;-80
2023/10/29 09:49:41;;;;;;;0.50;0.30;;;14.60;99.90;;;;;;5085643;28;20555;-80
2023/10/29 09:52:09;;;;;;;0.50;0.50;;;14.60;99.90;;;;;;5085570;28;20838;-81
2023/10/29 09:54:38;;;;;;;0.67;0.40;;;14.60;99.90;;;;;;5085493;28;21208;-80
2023/10/29 09:57:05;;;;;;;1.37;0.70;;;14.60;99.90;;;;;;5085516;28;20515;-80
2023/10/29 09:59:33;;;;;;;0.50;0.50;;;14.70;99.90;;;;;;5086385;28;20464;-81
2023/10/29 10:02:01;;;;;;;0.50;0.40;;;14.70;99.90;;;;;;5068666;28;20437;-82
2023/10/29 10:04:27;;;;;;;0.50;0.40;;;14.80;99.90;;;;;;5085658;28;20484;-81
2023/10/29 10:06:59;;;;;;;0.50;0.40;;;14.80;99.90;;;;;;5084342;28;20447;-81
2023/10/29 10:09:26;;;;;;;0.50;0.40;;;15.00;99.90;;;;;;5085816;28;20464;-78
2023/10/29 10:12:04;;;;;;;0.50;0.40;;;15.30;99.90;;;;;;5085394;28;20441;-81
2023/10/29 10:14:31;;;;;;;0.50;0.37;;;15.50;99.90;;;;;;5084757;28;20432;-81
2023/10/29 10:17:08;;;;;;;0.57;0.47;;;15.60;99.90;;;;;;5086637;28;20466;-83
2023/10/29 10:19:35;;;;;;;0.60;0.43;;;15.80;99.90;;;;;;5086635;28;20452;-82
2023/10/29 10:22:04;;;;;;;0.70;0.70;;;16.20;99.90;;;;;;5085720;28;20445;-81
2023/10/29 10:24:38;;;;;;;0.50;0.40;;;16.60;99.90;;;;;;5085697;28;20472;-81
2023/10/29 10:27:05;;;;;;;0.50;0.40;;;16.60;99.90;;;;;;5077672;28;20951;-81
2023/10/29 10:29:32;;;;;;;0.70;0.70;;;16.30;99.90;;;;;;5085788;28;20461;-81
2023/10/29 10:32:03;;;;;;;0.50;0.40;;;16.30;99.90;;;;;;5085871;28;20954;-81
2023/10/29 10:34:31;;;;;;;0.80;0.60;;;16.20;99.90;;;;;;5086641;28;20440;-83
2023/10/29 10:37:03;;;;;;;0.50;0.40;;;16.10;99.90;;;;;;5085010;28;20437;-82
2023/10/29 10:39:33;;;;;;;1.27;0.90;;;16.00;99.90;;;;;;5085780;28;20498;-82
2023/10/29 10:42:02;;;;;;;0.50;0.33;;;16.10;99.90;;;;;;5085105;28;20433;-80
2023/10/29 10:44:30;;;;;;;0.50;0.40;;;15.80;99.90;;;;;;5085330;28;20491;-82
2023/10/29 10:46:58;;;;;;;0.50;0.33;;;15.60;99.90;;;;;;5084695;28;20444;-82
2023/10/29 10:49:30;;;;;;;0.60;0.40;;;15.50;99.90;;;;;;5085205;28;20484;-78
2023/10/29 10:51:59;;;;;;;0.70;0.60;;;15.50;99.90;;;;;;5085342;28;20444;-83
2023/10/29 10:54:26;;;;;;;0.50;0.40;;;15.50;99.90;;;;;;5084747;28;20441;-82
2023/10/29 10:56:56;;;;;;;0.50;0.40;;;15.40;99.90;;;;;;5084747;28;20517;-79
2023/10/29 10:59:23;;;;;;;0.50;0.50;;;15.30;99.90;;;;;;5085765;28;20456;-81
2023/10/29 11:01:50;;;;;;;0.50;0.40;;;15.30;99.90;;;;;;5083899;28;20444;-81
2023/10/29 11:04:18;;;;;;;4.63;1.03;;;15.40;99.90;;;;;;5085559;28;20476;-79
2023/10/29 11:06:45;;;;;;;0.50;0.40;;;15.40;99.90;;;;;;5084518;28;20453;-79
2023/10/29 11:09:14;;;;;;;2.60;1.10;;;15.50;99.90;;;;;;5085149;28;20882;-82
2023/10/29 11:11:45;;;;;;;0.60;0.47;;;15.40;99.90;;;;;;5083915;28;20440;-82
2023/10/29 11:14:15;;;;;;;0.70;0.50;;;15.30;99.90;;;;;;5070749;28;20437;-81
2023/10/29 11:16:49;;;;;;;0.50;0.40;;;15.30;99.90;;;;;;5084296;28;20523;-79
2023/10/29 11:19:42;;;;;;;0.73;0.73;;;15.20;99.90;;;;;;5083998;28;20458;-81
2023/10/29 11:22:27;;;;;;;0.50;0.40;;;15.30;99.90;;;;;;5084263;28;20441;-81
2023/10/29 11:25:28;;;;;;;0.90;0.83;;;15.30;99.90;;;;;;5081969;28;20579;-81
2023/10/29 11:27:55;;;;;;;0.50;0.40;;;15.30;99.90;;;;;;5083877;28;20443;-80
2023/10/29 11:30:27;;;;;;;0.57;0.47;;;15.50;99.90;;;;;;5084822;28;20478;-79
2023/10/29 11:33:16;;;;;;;0.93;0.93;;;15.50;99.90;;;;;;5083097;28;20445;-80
2023/10/29 11:35:43;;;;;;;0.50;0.40;;;15.70;99.90;;;;;;5083439;28;20472;-81
2023/10/29 11:38:29;;;;;;;0.60;0.40;;;15.90;99.90;;;;;;5068016;28;20433;-81
2023/10/29 11:40:56;;;;;;;0.50;0.40;;;15.90;99.90;;;;;;5084538;28;20936;-82
2023/10/29 11:43:23;;;;;;;0.60;0.60;;;15.90;99.90;;;;;;5084489;28;20499;-81
2023/10/29 11:45:56;;;;;;;0.50;0.40;;;15.80;99.90;;;;;;5085147;28;20516;-81
2023/10/29 11:48:23;;;;;;;0.50;0.50;;;15.80;99.90;;;;;;5085590;28;20437;-81
2023/10/29 11:51:20;;;;;;;2.13;0.97;;;15.90;99.90;;;;;;5083433;28;20453;-80
2023/10/29 11:53:47;;;;;;;0.50;0.40;;;15.90;99.90;;;;;;5064969;28;20864;-81
2023/10/29 11:56:16;;;;;;;0.67;0.50;;;16.00;99.90;;;;;;5083074;28;21032;-81
2023/10/29 11:58:43;;;;;;;0.93;0.93;;;16.10;99.90;;;;;;5085470;28;20500;-81
2023/10/29 12:01:12;;;;;;;0.50;0.30;;;16.00;99.90;;;;;;5086764;28;20991;-80
2023/10/29 12:03:39;;;;;;;0.50;0.40;;;16.00;99.90;;;;;;5083779;28;20536;-80
2023/10/29 12:06:05;;;;;;;0.90;0.50;;;16.00;99.90;;;;;;5085130;28;20455;-81
2023/10/29 12:08:33;;;;;;;0.83;0.83;;;15.90;99.90;;;;;;5084909;28;20474;-80
2023/10/29 12:11:00;;;;;;;0.93;0.70;;;15.80;99.90;;;;;;5084800;28;20449;-80
2023/10/29 12:13:41;;;;;;;0.50;0.40;;;15.70;99.90;;;;;;5084994;28;20440;-81
2023/10/29 12:16:08;;;;;;;0.50;0.40;;;15.70;99.90;;;;;;5083827;28;20441;-81
2023/10/29 12:18:38;;;;;;;0.50;0.37;;;15.60;99.90;;;;;;5083282;28;20449;-81
2023/10/29 12:21:06;;;;;;;0.50;0.40;;;15.40;99.90;;;;;;5083471;28;20452;-80
2023/10/29 12:23:35;;;;;;;0.87;0.50;;;15.20;99.90;;;;;;5082696;28;20906;-79
2023/10/29 12:26:04;;;;;;;0.50;0.40;;;14.90;99.90;;;;;;5083608;28;20456;-79
2023/10/29 12:28:32;;;;;;;0.50;0.40;;;14.60;99.90;;;;;;5083481;28;20466;-81
2023/10/29 12:30:59;;;;;;;0.50;0.40;;;14.30;99.90;;;;;;5083016;28;20447;-82
2023/10/29 12:33:27;;;;;;;0.60;0.40;;;14.20;99.90;;;;;;5083699;28;20439;-81
2023/10/29 12:35:58;;;;;;;0.60;0.60;;;14.20;99.90;;;;;;5081879;28;20440;-80
2023/10/29 12:38:25;;;;;;;0.50;0.40;;;14.20;99.90;;;;;;5083611;28;20441;-78
2023/10/29 12:41:04;;;;;;;0.50;0.30;;;14.20;99.90;;;;;;5082496;28;20448;-81
2023/10/29 12:43:36;;;;;;;0.50;0.40;;;14.20;99.90;;;;;;5083836;28;20488;-80
2023/10/29 12:46:03;;;;;;;12.13;0.87;;;14.20;99.90;;;;;;5088228;28;20440;-82
2023/10/29 12:48:30;;;;;;;1.53;0.93;;;14.00;99.90;;;;;;5088078;28;20440;-81
2023/10/29 12:50:58;;;;;;;0.50;0.40;;;13.90;99.90;;;;;;5087931;28;20554;-81